createdAt,value
2023-01-27T00:02:14.656Z,100564.28
2023-01-27T00:05:23.633Z,100561.50
2023-01-27T00:08:32.501Z,100566.72
2023-01-27T00:11:40.637Z,100563.31
2023-01-27T00:14:49.260Z,100564.81
2023-01-27T00:18:03.620Z,100563.63
2023-01-27T00:21:18.764Z,100558.31
2023-01-27T00:24:27.071Z,100559.47
2023-01-27T00:27:42.632Z,100560.34
2023-01-27T00:30:46.904Z,100546.72
2023-01-27T00:34:02.636Z,100539.72
2023-01-27T00:37:04.524Z,100553.00
2023-01-27T00:40:21.716Z,100550.97
2023-01-27T00:43:23.526Z,100555.03
2023-01-27T00:46:38.662Z,100551.72
2023-01-27T00:49:47.661Z,100553.66
2023-01-27T00:52:56.372Z,100555.53
2023-01-27T00:56:04.661Z,100548.75
2023-01-27T00:59:13.167Z,100552.16
2023-01-27T01:02:21.634Z,100549.16
2023-01-27T01:05:30.327Z,100548.84
2023-01-27T01:08:40.667Z,100548.53
2023-01-27T01:11:55.708Z,100544.50
2023-01-27T01:14:57.592Z,100549.16
2023-01-27T01:18:14.669Z,100551.28
2023-01-27T01:21:23.650Z,100537.28
2023-01-27T01:24:39.035Z,100545.13
2023-01-27T01:27:51.687Z,100540.44
2023-01-27T01:31:08.465Z,100544.91
2023-01-27T01:34:16.708Z,100543.72
2023-01-27T01:37:31.688Z,100539.78
2023-01-27T01:40:34.128Z,100534.59
2023-01-27T01:43:48.653Z,100534.56
2023-01-27T01:46:50.761Z,100535.03
2023-01-27T01:50:05.643Z,100535.03
2023-01-27T01:53:14.793Z,100534.69
2023-01-27T01:56:29.728Z,100530.12
2023-01-27T01:59:50.694Z,100509.59
2023-01-27T02:02:59.871Z,100539.53
2023-01-27T02:06:08.681Z,100533.84
2023-01-27T02:09:20.431Z,100524.91
2023-01-27T02:12:34.684Z,100522.69
2023-01-27T02:15:37.303Z,100521.19
2023-01-27T02:18:51.684Z,100521.94
2023-01-27T02:22:02.706Z,100509.94
2023-01-27T02:25:26.646Z,100504.91
2023-01-27T02:28:41.744Z,100514.91
2023-01-27T02:31:43.579Z,100508.75
2023-01-27T02:35:02.681Z,100506.72
2023-01-27T02:38:13.703Z,100487.91
2023-01-27T02:41:38.953Z,100493.31
2023-01-27T02:44:47.691Z,100480.78
2023-01-27T02:47:56.368Z,100477.72
2023-01-27T02:51:11.740Z,100477.06
2023-01-27T02:54:26.696Z,100473.44
2023-01-27T02:57:35.455Z,100476.88
2023-01-27T03:00:43.729Z,100467.91
2023-01-27T03:03:52.381Z,100465.03
2023-01-27T03:07:06.676Z,100465.03
2023-01-27T03:10:21.684Z,100466.44
2023-01-27T03:13:24.320Z,100460.28
2023-01-27T03:16:38.706Z,100463.03
2023-01-27T03:19:40.543Z,100450.06
2023-01-27T03:22:56.759Z,100455.91
2023-01-27T03:26:08.099Z,100451.13
2023-01-27T03:29:23.735Z,100447.63
2023-01-27T03:32:34.769Z,100437.03
2023-01-27T03:35:43.544Z,100447.00
2023-01-27T03:38:58.682Z,100436.16
2023-01-27T03:42:00.492Z,100432.91
2023-01-27T03:45:16.724Z,100438.66
2023-01-27T03:48:24.727Z,100436.00
2023-01-27T03:51:33.379Z,100433.44
2023-01-27T03:54:47.701Z,100428.03
2023-01-27T03:57:56.328Z,100428.66
2023-01-27T04:01:07.708Z,100427.91
2023-01-27T04:04:16.391Z,100414.88
2023-01-27T04:07:24.690Z,100412.50
2023-01-27T04:10:39.770Z,100413.97
2023-01-27T04:13:54.683Z,100414.53
2023-01-27T04:17:06.720Z,100413.97
2023-01-27T04:20:16.160Z,100413.97
2023-01-27T04:23:24.779Z,100415.91
2023-01-27T04:26:46.704Z,100412.63
2023-01-27T04:29:55.717Z,100417.06
2023-01-27T04:33:10.729Z,100417.91
2023-01-27T04:36:12.590Z,100422.78
2023-01-27T04:39:27.704Z,100421.94
2023-01-27T04:42:29.535Z,100419.72
2023-01-27T04:45:44.846Z,100423.75
2023-01-27T04:48:52.783Z,100420.22
2023-01-27T04:52:01.334Z,100430.50
2023-01-27T04:55:09.773Z,100425.41
2023-01-27T04:58:18.463Z,100437.00
2023-01-27T05:01:27.813Z,100440.03
2023-01-27T05:04:42.703Z,100419.31
2023-01-27T05:07:50.790Z,100452.31
2023-01-27T05:11:05.799Z,100438.09
2023-01-27T05:14:14.387Z,100436.31
2023-01-27T05:17:28.707Z,100433.06
2023-01-27T05:20:38.709Z,100430.06
2023-01-27T05:23:47.763Z,100422.88
2023-01-27T05:26:56.420Z,100427.63
2023-01-27T05:30:04.765Z,100428.38
2023-01-27T05:33:19.744Z,100423.06
2023-01-27T05:36:23.451Z,100427.63
2023-01-27T05:39:37.804Z,100437.97
2023-01-27T05:42:39.840Z,100437.97
2023-01-27T05:45:54.744Z,100437.22
2023-01-27T05:49:10.731Z,100436.31
2023-01-27T05:52:19.453Z,100439.75
2023-01-27T05:55:27.755Z,100431.78
2023-01-27T05:58:36.974Z,100436.03
2023-01-27T06:01:45.779Z,100431.34
2023-01-27T06:04:54.355Z,100433.06
2023-01-27T06:08:08.759Z,100430.84
2023-01-27T06:11:16.836Z,100430.97
2023-01-27T06:14:25.546Z,100426.50
2023-01-27T06:17:33.738Z,100421.22
2023-01-27T06:20:42.873Z,100415.59
2023-01-27T06:23:51.813Z,100419.50
2023-01-27T06:27:00.431Z,100421.59
2023-01-27T06:30:08.797Z,100423.75
2023-01-27T06:33:27.765Z,100419.84
2023-01-27T06:36:36.407Z,100428.94
2023-01-27T06:39:44.806Z,100421.66
2023-01-27T06:42:53.544Z,100424.09
2023-01-27T06:46:04.368Z,100430.34
2023-01-27T06:49:19.779Z,100418.03
2023-01-27T06:52:28.620Z,100428.75
2023-01-27T06:55:37.754Z,100442.66
2023-01-27T06:58:46.456Z,100428.75
2023-01-27T07:01:54.785Z,100440.78
2023-01-27T07:05:06.520Z,100432.25
2023-01-27T07:08:20.766Z,100429.75
2023-01-27T07:11:28.844Z,100432.41
2023-01-27T07:14:38.132Z,100438.66
2023-01-27T07:17:46.764Z,100433.44
2023-01-27T07:20:55.426Z,100436.75
2023-01-27T07:24:03.844Z,100435.88
2023-01-27T07:27:19.109Z,100440.41
2023-01-27T07:30:27.880Z,100446.81
2023-01-27T07:33:43.834Z,100445.22
2023-01-27T07:36:46.045Z,100446.47
2023-01-27T07:40:00.797Z,100451.59
2023-01-27T07:43:02.766Z,100448.84
2023-01-27T07:46:17.853Z,100450.53
2023-01-27T07:49:39.885Z,100439.69
2023-01-27T07:52:49.091Z,100427.47
2023-01-27T07:56:06.933Z,100423.84
2023-01-27T07:59:15.528Z,100428.44
2023-01-27T08:02:23.818Z,100428.94
2023-01-27T08:05:40.820Z,100434.50
2023-01-27T08:08:42.717Z,100444.16
2023-01-27T08:11:57.895Z,100439.38
2023-01-27T08:14:59.774Z,100445.44
2023-01-27T08:22:07.902Z,100442.47
2023-01-27T08:25:22.915Z,100449.06
2023-01-27T08:28:32.900Z,100446.94
2023-01-27T08:31:41.663Z,100447.34
2023-01-27T08:34:49.830Z,100446.28
2023-01-27T08:37:58.495Z,100445.12
2023-01-27T08:41:12.847Z,100457.03
2023-01-27T08:44:27.818Z,100451.59
2023-01-27T08:47:30.109Z,100455.56
2023-01-27T08:50:44.912Z,100457.75
2023-01-27T08:53:54.131Z,100463.97
2023-01-27T08:57:10.844Z,100460.87
2023-01-27T09:00:16.989Z,100466.44
2023-01-27T09:03:32.846Z,100470.41
2023-01-27T09:06:34.629Z,100458.38
2023-01-27T09:10:07.701Z,100470.66
2023-01-27T09:13:21.876Z,100467.19
2023-01-27T09:16:37.835Z,100471.13
2023-01-27T09:19:47.245Z,100460.72
2023-01-27T09:22:55.826Z,100475.09
2023-01-27T09:26:17.957Z,100471.47
2023-01-27T09:29:26.839Z,100479.44
2023-01-27T09:32:35.468Z,100476.88
2023-01-27T09:35:52.847Z,100479.44
2023-01-27T09:39:12.828Z,100479.78
2023-01-27T09:42:47.680Z,100480.06
2023-01-27T09:46:12.914Z,100483.69
2023-01-27T09:50:11.223Z,100475.84
2023-01-27T09:53:38.968Z,100484.78
2023-01-27T09:57:13.944Z,100484.00
2023-01-27T10:00:33.231Z,100480.31
2023-01-27T10:04:05.809Z,100475.22
2023-01-27T10:07:40.071Z,100475.00
2023-01-27T10:11:20.904Z,100469.91
2023-01-27T10:14:45.977Z,100475.28
2023-01-27T10:18:15.947Z,100443.25
2023-01-27T10:21:39.907Z,100463.63
2023-01-27T10:25:15.443Z,100467.94
2023-01-27T10:28:30.944Z,100467.94
2023-01-27T10:31:53.758Z,100473.88
2023-01-27T10:35:28.872Z,100475.91
2023-01-27T10:38:54.882Z,100478.38
2023-01-27T10:42:19.430Z,100465.59
2023-01-27T10:45:42.857Z,100469.34
2023-01-27T10:48:57.489Z,100454.91
2023-01-27T10:52:20.899Z,100464.37
2023-01-27T10:55:41.429Z,100450.31
2023-01-27T10:59:08.963Z,100454.44
2023-01-27T11:02:46.872Z,100453.72
2023-01-27T11:06:07.882Z,100453.06
2023-01-27T11:09:25.765Z,100454.84
2023-01-27T11:12:45.889Z,100455.19
2023-01-27T11:15:54.868Z,100448.47
2023-01-27T11:19:18.674Z,100441.63
2023-01-27T11:22:42.889Z,100449.59
2023-01-27T11:26:24.892Z,100441.81
2023-01-27T11:29:42.501Z,100448.94
2023-01-27T11:33:35.912Z,100443.22
2023-01-27T11:36:43.884Z,100441.19
2023-01-27T11:39:58.904Z,100426.91
2023-01-27T11:43:24.865Z,100421.31
2023-01-27T11:46:40.904Z,100421.09
2023-01-27T11:49:58.855Z,100422.34
2023-01-27T11:53:12.391Z,100419.53
2023-01-27T11:56:26.861Z,100407.41
2023-01-27T11:59:48.005Z,100407.78
2023-01-27T12:03:07.931Z,100401.38
2023-01-27T12:06:30.869Z,100398.34
2023-01-27T12:09:41.527Z,100395.31
2023-01-27T12:12:50.921Z,100400.88
2023-01-27T12:16:08.890Z,100394.13
2023-01-27T12:19:34.371Z,100389.16
2023-01-27T12:22:46.855Z,100376.06
2023-01-27T12:26:04.734Z,100390.25
2023-01-27T12:29:20.892Z,100387.41
2023-01-27T12:32:48.975Z,100376.03
2023-01-27T12:35:52.361Z,100369.03
2023-01-27T12:39:07.924Z,100368.53
2023-01-27T12:42:39.652Z,100371.44
2023-01-27T12:46:23.979Z,100372.19
2023-01-27T12:49:32.381Z,100375.13
2023-01-27T12:52:46.907Z,100374.44
2023-01-27T12:56:03.956Z,100372.56
2023-01-27T12:59:16.012Z,100368.87
2023-01-27T13:02:28.936Z,100365.84
2023-01-27T13:05:46.000Z,100374.09
2023-01-27T13:08:51.308Z,100371.88
2023-01-27T13:12:10.909Z,100371.91
2023-01-27T13:15:28.947Z,100371.44
2023-01-27T13:18:43.884Z,100370.28
2023-01-27T13:21:49.873Z,100381.00
2023-01-27T13:25:09.881Z,100366.28
2023-01-27T13:28:52.167Z,100405.69
2023-01-27T14:45:16.193Z,100388.59
2023-01-27T14:48:53.962Z,100390.91
2023-01-27T14:52:09.772Z,100393.13
2023-01-27T14:55:38.012Z,100388.88
2023-01-27T14:59:18.966Z,100384.97
2023-01-27T15:02:47.280Z,100386.97
2023-01-27T15:06:12.023Z,100383.28
2023-01-27T15:09:50.948Z,100387.81
2023-01-27T15:13:29.594Z,100385.47
2023-01-27T15:16:51.004Z,100380.38
2023-01-27T15:20:29.997Z,100376.03
2023-01-27T15:23:49.693Z,100383.78
2023-01-27T15:27:07.960Z,100382.69
2023-01-27T15:30:22.382Z,100383.28
2023-01-27T15:33:58.945Z,100390.25
2023-01-27T15:37:33.938Z,100390.78
2023-01-27T15:40:55.910Z,100392.19
2023-01-27T15:44:40.073Z,100408.88
2023-01-27T15:47:59.432Z,100414.38
2023-01-27T15:51:24.971Z,100415.88
2023-01-27T15:54:39.873Z,100414.38
2023-01-27T15:57:48.000Z,100410.56
2023-01-27T16:01:05.066Z,100383.16
2023-01-27T16:04:17.104Z,100399.28
2023-01-27T16:07:38.985Z,100400.75
2023-01-27T16:10:48.985Z,100403.22
2023-01-27T16:14:25.690Z,100402.56
2023-01-27T16:17:40.039Z,100410.69
2023-01-27T16:20:55.594Z,100409.91
2023-01-27T16:24:10.054Z,100405.56
2023-01-27T16:27:52.019Z,100415.97
2023-01-27T16:31:04.462Z,100416.50
2023-01-27T16:34:29.980Z,100423.41
2023-01-27T16:37:37.484Z,100424.75
2023-01-27T16:40:58.985Z,100430.59
2023-01-27T16:44:07.011Z,100424.66
2023-01-27T16:47:34.964Z,100438.19
2023-01-27T16:50:40.163Z,100438.62
2023-01-27T16:53:58.041Z,100438.62
2023-01-27T16:57:10.016Z,100447.75
2023-01-27T17:00:25.430Z,100438.16
2023-01-27T17:03:43.036Z,100447.31
2023-01-27T17:06:57.114Z,100448.28
2023-01-27T17:10:18.940Z,100452.53
2023-01-27T17:13:36.735Z,100456.66
2023-01-27T17:16:54.032Z,100452.47
2023-01-27T17:20:07.994Z,100456.34
2023-01-27T17:23:28.002Z,100457.19
2023-01-27T17:26:37.001Z,100467.28
2023-01-27T17:29:47.836Z,100463.87
2023-01-27T17:33:00.017Z,100469.19
2023-01-27T17:36:11.287Z,100462.06
2023-01-27T17:39:32.023Z,100459.84
2023-01-27T17:42:41.007Z,100454.28
2023-01-27T17:46:18.089Z,100458.03
2023-01-27T17:49:33.993Z,100454.75
2023-01-27T17:52:52.168Z,100448.34
2023-01-27T17:56:02.006Z,100456.84
2023-01-27T17:59:25.999Z,100420.31
2023-01-27T18:02:38.083Z,100451.88
2023-01-27T18:05:58.030Z,100463.87
2023-01-27T18:09:19.359Z,100464.31
2023-01-27T18:12:39.043Z,100468.88
2023-01-27T18:15:54.078Z,100466.00
2023-01-27T18:19:17.308Z,100467.37
2023-01-27T18:22:32.132Z,100478.41
2023-01-27T18:25:41.599Z,100482.38
2023-01-27T18:28:52.015Z,100481.06
2023-01-27T18:32:22.011Z,100476.09
2023-01-27T18:35:33.576Z,100472.78
2023-01-27T18:38:53.060Z,100477.06
2023-01-27T18:42:02.936Z,100478.34
2023-01-27T18:45:12.418Z,100477.16
2023-01-27T18:48:32.084Z,100473.09
2023-01-27T18:51:47.056Z,100474.47
2023-01-27T18:55:01.036Z,100471.03
2023-01-27T18:58:10.403Z,100477.25
2023-01-27T19:01:27.033Z,100474.16
2023-01-27T19:04:36.075Z,100476.41
2023-01-27T19:07:44.068Z,100474.78
2023-01-27T19:10:53.880Z,100485.31
2023-01-27T19:14:02.060Z,100481.06
2023-01-27T19:17:23.083Z,100478.53
2023-01-27T19:20:28.266Z,100478.94
2023-01-27T19:23:43.108Z,100486.94
2023-01-27T19:26:45.247Z,100477.87
2023-01-27T19:30:04.032Z,100483.19
2023-01-27T19:33:18.430Z,100491.59
2023-01-27T19:36:47.026Z,100492.97
2023-01-27T19:39:55.104Z,100490.31
2023-01-27T19:43:04.050Z,100496.59
2023-01-27T19:46:20.052Z,100488.28
2023-01-27T19:49:35.369Z,100496.25
2023-01-27T19:52:44.075Z,100501.81
2023-01-27T19:55:59.240Z,100503.62
2023-01-27T19:59:01.358Z,100499.56
2023-01-27T20:02:19.120Z,100501.25
2023-01-27T20:05:29.782Z,100511.47
2023-01-27T20:08:44.178Z,100516.69
2023-01-27T20:12:00.196Z,100511.78
2023-01-27T20:15:15.479Z,100508.09
2023-01-27T20:18:25.096Z,100525.75
2023-01-27T20:21:34.131Z,100524.00
2023-01-27T20:24:43.104Z,100524.34
2023-01-27T20:27:55.823Z,100535.19
2023-01-27T20:31:12.052Z,100535.09
2023-01-27T20:34:21.107Z,100529.88
2023-01-27T20:37:29.905Z,100529.97
2023-01-27T20:40:38.051Z,100531.56
2023-01-27T20:43:47.461Z,100526.34
2023-01-27T20:46:56.101Z,100531.56
2023-01-27T20:50:06.640Z,100528.34
2023-01-27T20:53:22.109Z,100534.41
2023-01-27T20:56:31.084Z,100539.66
2023-01-27T20:59:40.007Z,100540.81
2023-01-27T21:02:56.084Z,100538.50
2023-01-27T21:05:58.069Z,100543.59
2023-01-27T21:09:13.127Z,100536.69
2023-01-27T21:12:22.071Z,100538.06
2023-01-27T21:15:31.155Z,100537.09
2023-01-27T21:18:40.082Z,100528.81
2023-01-27T21:21:49.009Z,100540.41
2023-01-27T21:24:57.106Z,100536.25
2023-01-27T21:28:05.946Z,100534.97
2023-01-27T21:31:16.213Z,100536.56
2023-01-27T21:34:32.064Z,100537.84
2023-01-27T21:37:34.088Z,100535.72
2023-01-27T21:40:50.140Z,100534.66
2023-01-27T21:43:52.155Z,100542.44
2023-01-27T21:47:07.075Z,100534.69
2023-01-27T21:50:23.179Z,100543.38
2023-01-27T21:53:31.735Z,100533.28
2023-01-27T21:56:40.104Z,100544.25
2023-01-27T21:59:48.992Z,100546.16
2023-01-27T22:03:03.122Z,100549.91
2023-01-27T22:06:11.871Z,100548.28
2023-01-27T22:09:27.151Z,100547.31
2023-01-27T22:12:42.111Z,100547.62
2023-01-27T22:15:50.816Z,100549.25
2023-01-27T22:18:59.106Z,100545.75
2023-01-27T22:22:10.022Z,100545.84
2023-01-27T22:25:21.099Z,100535.28
2023-01-27T22:28:36.121Z,100545.31
2023-01-27T22:31:44.212Z,100527.53
2023-01-27T22:34:59.145Z,100539.03
2023-01-27T22:38:00.992Z,100538.91
2023-01-27T22:41:16.132Z,100536.50
2023-01-27T22:44:18.508Z,100531.47
2023-01-27T22:47:33.143Z,100528.09
2023-01-27T22:50:41.128Z,100522.72
2023-01-27T22:53:50.104Z,100526.16
2023-01-27T22:57:00.777Z,100527.44
2023-01-27T23:00:11.021Z,100523.59
2023-01-27T23:03:31.225Z,100529.13
2023-01-27T23:06:39.119Z,100524.78
2023-01-27T23:09:48.060Z,100531.78
2023-01-27T23:12:56.204Z,100537.00
2023-01-27T23:16:05.604Z,100527.12
2023-01-27T23:19:14.103Z,100522.53
2023-01-27T23:22:22.956Z,100525.75
2023-01-27T23:25:31.136Z,100526.47
2023-01-27T23:28:47.148Z,100523.94
2023-01-27T23:31:49.187Z,100528.41
2023-01-27T23:35:04.190Z,100516.59
2023-01-27T23:38:16.348Z,100518.19
2023-01-27T23:41:37.135Z,100520.66
2023-01-27T23:44:46.182Z,100524.56
2023-01-27T23:48:01.450Z,100524.56
2023-01-27T23:51:15.183Z,100523.31
2023-01-27T23:54:23.861Z,100522.03
2023-01-27T23:57:32.182Z,100522.78
